sensor_id;sensor_type;location;lat;lon;timestamp;temperature;humidity
52867;DHT22;38739;53.324;6.862;2024-01-30T00:01:50;5.50;99.90
52867;DHT22;38739;53.324;6.862;2024-01-30T00:04:16;5.50;99.90
52867;DHT22;38739;53.324;6.862;2024-01-30T00:06:43;5.50;99.90
52867;DHT22;38739;53.324;6.862;2024-01-30T00:09:09;5.50;99.90
52867;DHT22;38739;53.324;6.862;2024-01-30T00:11:39;5.50;99.90
52867;DHT22;38739;53.324;6.862;2024-01-30T00:14:04;5.50;99.90
52867;DHT22;38739;53.324;6.862;2024-01-30T00:16:30;5.50;99.90
52867;DHT22;38739;53.324;6.862;2024-01-30T00:18:56;5.40;99.90
52867;DHT22;38739;53.324;6.862;2024-01-30T00:21:23;5.40;99.90
52867;DHT22;38739;53.324;6.862;2024-01-30T00:23:49;5.50;99.90
52867;DHT22;38739;53.324;6.862;2024-01-30T00:26:15;5.40;99.90
52867;DHT22;38739;53.324;6.862;2024-01-30T00:28:41;5.40;99.90
52867;DHT22;38739;53.324;6.862;2024-01-30T00:31:07;5.40;99.90
52867;DHT22;38739;53.324;6.862;2024-01-30T00:33:38;5.40;99.90
52867;DHT22;38739;53.324;6.862;2024-01-30T00:36:04;5.40;99.90
52867;DHT22;38739;53.324;6.862;2024-01-30T00:38:30;5.40;99.90
52867;DHT22;38739;53.324;6.862;2024-01-30T00:40:55;5.40;99.90
52867;DHT22;38739;53.324;6.862;2024-01-30T00:43:21;5.30;99.90
52867;DHT22;38739;53.324;6.862;2024-01-30T00:45:47;5.30;99.90
52867;DHT22;38739;53.324;6.862;2024-01-30T00:48:13;5.30;99.90
52867;DHT22;38739;53.324;6.862;2024-01-30T00:50:38;5.30;99.90
52867;DHT22;38739;53.324;6.862;2024-01-30T00:53:04;5.30;99.90
52867;DHT22;38739;53.324;6.862;2024-01-30T00:55:29;5.30;99.90
52867;DHT22;38739;53.324;6.862;2024-01-30T00:57:55;5.20;99.90
52867;DHT22;38739;53.324;6.862;2024-01-30T01:00:21;5.20;99.90
52867;DHT22;38739;53.324;6.862;2024-01-30T01:02:48;5.20;99.90
52867;DHT22;38739;53.324;6.862;2024-01-30T01:05:14;5.20;99.90
52867;DHT22;38739;53.324;6.862;2024-01-30T01:07:40;5.20;99.90
52867;DHT22;38739;53.324;6.862;2024-01-30T01:10:08;5.20;99.90
52867;DHT22;38739;53.324;6.862;2024-01-30T01:12:34;5.20;99.90
52867;DHT22;38739;53.324;6.862;2024-01-30T01:14:59;5.20;99.90
52867;DHT22;38739;53.324;6.862;2024-01-30T01:17:25;5.10;99.90
52867;DHT22;38739;53.324;6.862;2024-01-30T01:19:50;5.10;99.90
52867;DHT22;38739;53.324;6.862;2024-01-30T01:22:16;5.10;99.90
52867;DHT22;38739;53.324;6.862;2024-01-30T01:24:43;5.10;99.90
52867;DHT22;38739;53.324;6.862;2024-01-30T01:27:09;5.10;99.90
52867;DHT22;38739;53.324;6.862;2024-01-30T01:29:35;5.10;99.90
52867;DHT22;38739;53.324;6.862;2024-01-30T01:32:00;5.10;99.90
52867;DHT22;38739;53.324;6.862;2024-01-30T01:34:26;5.10;99.90
52867;DHT22;38739;53.324;6.862;2024-01-30T01:36:52;5.10;99.90
52867;DHT22;38739;53.324;6.862;2024-01-30T01:39:21;5.10;99.90
52867;DHT22;38739;53.324;6.862;2024-01-30T01:41:48;5.10;99.90
52867;DHT22;38739;53.324;6.862;2024-01-30T01:44:14;5.10;99.90
52867;DHT22;38739;53.324;6.862;2024-01-30T01:46:39;5.20;99.90
52867;DHT22;38739;53.324;6.862;2024-01-30T01:49:05;5.20;99.90
52867;DHT22;38739;53.324;6.862;2024-01-30T01:51:34;5.20;99.90
52867;DHT22;38739;53.324;6.862;2024-01-30T01:54:05;5.20;99.90
52867;DHT22;38739;53.324;6.862;2024-01-30T01:56:31;5.20;99.90
52867;DHT22;38739;53.324;6.862;2024-01-30T01:59:00;5.20;99.90
52867;DHT22;38739;53.324;6.862;2024-01-30T02:01:31;5.20;99.90
52867;DHT22;38739;53.324;6.862;2024-01-30T02:03:58;5.20;99.90
52867;DHT22;38739;53.324;6.862;2024-01-30T02:06:24;5.20;99.90
52867;DHT22;38739;53.324;6.862;2024-01-30T02:08:50;5.20;99.90
52867;DHT22;38739;53.324;6.862;2024-01-30T02:11:16;5.20;99.90
52867;DHT22;38739;53.324;6.862;2024-01-30T02:13:42;5.20;99.90
52867;DHT22;38739;53.324;6.862;2024-01-30T02:16:08;5.10;99.90
52867;DHT22;38739;53.324;6.862;2024-01-30T02:18:33;5.10;99.90
52867;DHT22;38739;53.324;6.862;2024-01-30T02:21:03;5.10;99.90
52867;DHT22;38739;53.324;6.862;2024-01-30T02:23:30;5.10;99.90
52867;DHT22;38739;53.324;6.862;2024-01-30T02:25:58;5.10;99.90
52867;DHT22;38739;53.324;6.862;2024-01-30T02:28:24;5.10;99.90
52867;DHT22;38739;53.324;6.862;2024-01-30T02:30:49;5.20;99.90
52867;DHT22;38739;53.324;6.862;2024-01-30T02:33:15;5.10;99.90
52867;DHT22;38739;53.324;6.862;2024-01-30T02:35:41;5.20;99.90
52867;DHT22;38739;53.324;6.862;2024-01-30T02:38:07;5.20;99.90
52867;DHT22;38739;53.324;6.862;2024-01-30T02:40:32;5.20;99.90
52867;DHT22;38739;53.324;6.862;2024-01-30T02:42:59;5.20;99.90
52867;DHT22;38739;53.324;6.862;2024-01-30T02:45:25;5.20;99.90
52867;DHT22;38739;53.324;6.862;2024-01-30T02:47:51;5.20;99.90
52867;DHT22;38739;53.324;6.862;2024-01-30T02:50:17;5.20;99.90
52867;DHT22;38739;53.324;6.862;2024-01-30T02:52:43;5.20;99.90
52867;DHT22;38739;53.324;6.862;2024-01-30T02:55:11;5.20;99.90
52867;DHT22;38739;53.324;6.862;2024-01-30T02:57:38;5.20;99.90
52867;DHT22;38739;53.324;6.862;2024-01-30T03:00:04;5.20;99.90
52867;DHT22;38739;53.324;6.862;2024-01-30T03:02:32;5.30;99.90
52867;DHT22;38739;53.324;6.862;2024-01-30T03:04:59;5.30;99.90
52867;DHT22;38739;53.324;6.862;2024-01-30T03:07:24;5.30;99.90
52867;DHT22;38739;53.324;6.862;2024-01-30T03:09:50;5.30;99.90
52867;DHT22;38739;53.324;6.862;2024-01-30T03:12:16;5.30;99.90
52867;DHT22;38739;53.324;6.862;2024-01-30T03:14:41;5.30;99.90
52867;DHT22;38739;53.324;6.862;2024-01-30T03:17:07;5.30;99.90
52867;DHT22;38739;53.324;6.862;2024-01-30T03:19:33;5.30;99.90
52867;DHT22;38739;53.324;6.862;2024-01-30T03:21:59;5.40;99.90
52867;DHT22;38739;53.324;6.862;2024-01-30T03:24:25;5.40;99.90
52867;DHT22;38739;53.324;6.862;2024-01-30T03:26:51;5.40;99.90
52867;DHT22;38739;53.324;6.862;2024-01-30T03:29:17;5.40;99.90
52867;DHT22;38739;53.324;6.862;2024-01-30T03:31:42;5.40;99.90
52867;DHT22;38739;53.324;6.862;2024-01-30T03:34:08;5.40;99.90
52867;DHT22;38739;53.324;6.862;2024-01-30T03:36:34;5.40;99.90
52867;DHT22;38739;53.324;6.862;2024-01-30T03:39:00;5.40;99.90
52867;DHT22;38739;53.324;6.862;2024-01-30T03:41:26;5.50;99.90
52867;DHT22;38739;53.324;6.862;2024-01-30T03:43:52;5.50;99.90
52867;DHT22;38739;53.324;6.862;2024-01-30T03:46:18;5.50;99.90
52867;DHT22;38739;53.324;6.862;2024-01-30T03:48:44;5.40;99.90
52867;DHT22;38739;53.324;6.862;2024-01-30T03:51:10;5.50;99.90
52867;DHT22;38739;53.324;6.862;2024-01-30T03:53:40;5.50;99.90
52867;DHT22;38739;53.324;6.862;2024-01-30T03:56:06;5.50;99.90
52867;DHT22;38739;53.324;6.862;2024-01-30T03:58:32;5.50;99.90
52867;DHT22;38739;53.324;6.862;2024-01-30T04:00:58;5.50;99.90
52867;DHT22;38739;53.324;6.862;2024-01-30T04:03:24;5.50;99.90
52867;DHT22;38739;53.324;6.862;2024-01-30T04:05:51;5.50;99.90
52867;DHT22;38739;53.324;6.862;2024-01-30T04:08:16;5.60;99.90
52867;DHT22;38739;53.324;6.862;2024-01-30T04:10:42;5.60;99.90
52867;DHT22;38739;53.324;6.862;2024-01-30T04:13:08;5.60;99.90
52867;DHT22;38739;53.324;6.862;2024-01-30T04:15:34;5.70;99.90
52867;DHT22;38739;53.324;6.862;2024-01-30T04:18:01;5.70;99.90
52867;DHT22;38739;53.324;6.862;2024-01-30T04:20:27;5.60;99.90
52867;DHT22;38739;53.324;6.862;2024-01-30T04:22:53;5.70;99.90
52867;DHT22;38739;53.324;6.862;2024-01-30T04:25:18;5.70;99.90
52867;DHT22;38739;53.324;6.862;2024-01-30T04:27:44;5.70;99.90
52867;DHT22;38739;53.324;6.862;2024-01-30T04:30:10;5.80;99.90
52867;DHT22;38739;53.324;6.862;2024-01-30T04:32:37;5.80;99.90
52867;DHT22;38739;53.324;6.862;2024-01-30T04:35:03;5.80;99.90
52867;DHT22;38739;53.324;6.862;2024-01-30T04:37:29;5.80;99.90
52867;DHT22;38739;53.324;6.862;2024-01-30T04:39:55;5.80;99.90
52867;DHT22;38739;53.324;6.862;2024-01-30T04:42:21;5.90;99.90
52867;DHT22;38739;53.324;6.862;2024-01-30T04:44:46;5.90;99.90
52867;DHT22;38739;53.324;6.862;2024-01-30T04:47:12;5.90;99.90
52867;DHT22;38739;53.324;6.862;2024-01-30T04:49:39;5.90;99.90
52867;DHT22;38739;53.324;6.862;2024-01-30T04:52:08;5.90;99.90
52867;DHT22;38739;53.324;6.862;2024-01-30T04:54:37;5.90;99.90
52867;DHT22;38739;53.324;6.862;2024-01-30T04:57:03;6.00;99.90
52867;DHT22;38739;53.324;6.862;2024-01-30T04:59:28;6.00;99.90
52867;DHT22;38739;53.324;6.862;2024-01-30T05:01:54;6.00;99.90
52867;DHT22;38739;53.324;6.862;2024-01-30T05:04:20;6.00;99.90
52867;DHT22;38739;53.324;6.862;2024-01-30T05:06:46;6.10;99.90
52867;DHT22;38739;53.324;6.862;2024-01-30T05:09:12;6.10;99.90
52867;DHT22;38739;53.324;6.862;2024-01-30T05:11:41;6.10;99.90
52867;DHT22;38739;53.324;6.862;2024-01-30T05:14:07;6.20;99.90
52867;DHT22;38739;53.324;6.862;2024-01-30T05:16:34;6.20;99.90
52867;DHT22;38739;53.324;6.862;2024-01-30T05:19:00;6.20;99.90
52867;DHT22;38739;53.324;6.862;2024-01-30T05:21:26;6.30;99.90
52867;DHT22;38739;53.324;6.862;2024-01-30T05:23:51;6.30;99.90
52867;DHT22;38739;53.324;6.862;2024-01-30T05:26:17;6.30;99.90
52867;DHT22;38739;53.324;6.862;2024-01-30T05:28:43;6.40;99.90
52867;DHT22;38739;53.324;6.862;2024-01-30T05:31:13;6.40;99.90
52867;DHT22;38739;53.324;6.862;2024-01-30T05:33:39;6.40;99.90
52867;DHT22;38739;53.324;6.862;2024-01-30T05:36:05;6.50;99.90
52867;DHT22;38739;53.324;6.862;2024-01-30T05:38:31;6.50;99.90
52867;DHT22;38739;53.324;6.862;2024-01-30T05:40:57;6.50;99.90
52867;DHT22;38739;53.324;6.862;2024-01-30T05:43:24;6.60;99.90
52867;DHT22;38739;53.324;6.862;2024-01-30T05:45:50;6.60;99.90
52867;DHT22;38739;53.324;6.862;2024-01-30T05:48:16;6.60;99.90
52867;DHT22;38739;53.324;6.862;2024-01-30T05:50:42;6.50;99.90
52867;DHT22;38739;53.324;6.862;2024-01-30T05:53:07;6.60;99.90
52867;DHT22;38739;53.324;6.862;2024-01-30T05:55:33;6.50;99.90
52867;DHT22;38739;53.324;6.862;2024-01-30T05:57:59;6.50;99.90
52867;DHT22;38739;53.324;6.862;2024-01-30T06:00:24;6.50;99.90
52867;DHT22;38739;53.324;6.862;2024-01-30T06:02:50;6.60;99.90
52867;DHT22;38739;53.324;6.862;2024-01-30T06:05:16;6.50;99.90
52867;DHT22;38739;53.324;6.862;2024-01-30T06:07:42;6.60;99.90
52867;DHT22;38739;53.324;6.862;2024-01-30T06:10:08;6.60;99.90
52867;DHT22;38739;53.324;6.862;2024-01-30T06:12:34;6.60;99.90
52867;DHT22;38739;53.324;6.862;2024-01-30T06:15:01;6.60;99.90
52867;DHT22;38739;53.324;6.862;2024-01-30T06:17:26;6.70;99.90
52867;DHT22;38739;53.324;6.862;2024-01-30T06:19:52;6.70;99.90
52867;DHT22;38739;53.324;6.862;2024-01-30T06:22:18;6.70;99.90
52867;DHT22;38739;53.324;6.862;2024-01-30T06:24:43;6.80;99.90
52867;DHT22;38739;53.324;6.862;2024-01-30T06:27:10;6.80;99.90
52867;DHT22;38739;53.324;6.862;2024-01-30T06:29:36;6.80;99.90
52867;DHT22;38739;53.324;6.862;2024-01-30T06:32:02;6.80;99.90
52867;DHT22;38739;53.324;6.862;2024-01-30T06:34:27;6.90;99.90
52867;DHT22;38739;53.324;6.862;2024-01-30T06:36:53;6.80;99.90
52867;DHT22;38739;53.324;6.862;2024-01-30T06:39:19;6.90;99.90
52867;DHT22;38739;53.324;6.862;2024-01-30T06:41:44;6.90;99.90
52867;DHT22;38739;53.324;6.862;2024-01-30T06:44:12;6.90;99.90
52867;DHT22;38739;53.324;6.862;2024-01-30T06:46:38;6.90;99.90
52867;DHT22;38739;53.324;6.862;2024-01-30T06:49:04;6.90;99.90
52867;DHT22;38739;53.324;6.862;2024-01-30T06:51:30;6.90;99.90
52867;DHT22;38739;53.324;6.862;2024-01-30T06:53:56;6.90;99.90
52867;DHT22;38739;53.324;6.862;2024-01-30T06:56:21;6.80;99.90
52867;DHT22;38739;53.324;6.862;2024-01-30T06:58:51;6.80;99.90
52867;DHT22;38739;53.324;6.862;2024-01-30T07:01:17;6.80;99.90
52867;DHT22;38739;53.324;6.862;2024-01-30T07:03:43;6.90;99.90
52867;DHT22;38739;53.324;6.862;2024-01-30T07:06:09;6.90;99.90
52867;DHT22;38739;53.324;6.862;2024-01-30T07:08:36;6.90;99.90
52867;DHT22;38739;53.324;6.862;2024-01-30T07:11:04;6.90;99.90
52867;DHT22;38739;53.324;6.862;2024-01-30T07:13:31;7.00;99.90
52867;DHT22;38739;53.324;6.862;2024-01-30T07:15:56;7.00;99.90
52867;DHT22;38739;53.324;6.862;2024-01-30T07:18:22;7.00;99.90
52867;DHT22;38739;53.324;6.862;2024-01-30T07:20:48;7.00;99.90
52867;DHT22;38739;53.324;6.862;2024-01-30T07:23:15;7.00;99.90
52867;DHT22;38739;53.324;6.862;2024-01-30T07:25:43;7.00;99.90
52867;DHT22;38739;53.324;6.862;2024-01-30T07:28:10;7.00;99.90
52867;DHT22;38739;53.324;6.862;2024-01-30T07:30:37;7.00;99.90
52867;DHT22;38739;53.324;6.862;2024-01-30T07:33:02;7.00;99.90
52867;DHT22;38739;53.324;6.862;2024-01-30T07:35:28;7.10;99.90
52867;DHT22;38739;53.324;6.862;2024-01-30T07:37:54;7.00;99.90
52867;DHT22;38739;53.324;6.862;2024-01-30T07:40:19;7.10;99.90
52867;DHT22;38739;53.324;6.862;2024-01-30T07:42:45;7.10;99.90
52867;DHT22;38739;53.324;6.862;2024-01-30T07:45:11;7.10;99.90
52867;DHT22;38739;53.324;6.862;2024-01-30T07:47:37;7.10;99.90
52867;DHT22;38739;53.324;6.862;2024-01-30T07:50:02;7.10;99.90
52867;DHT22;38739;53.324;6.862;2024-01-30T07:52:28;7.20;99.90
52867;DHT22;38739;53.324;6.862;2024-01-30T07:54:54;7.20;99.90
52867;DHT22;38739;53.324;6.862;2024-01-30T07:57:20;7.20;99.90
52867;DHT22;38739;53.324;6.862;2024-01-30T07:59:46;7.20;99.90
52867;DHT22;38739;53.324;6.862;2024-01-30T08:02:13;7.30;99.90
52867;DHT22;38739;53.324;6.862;2024-01-30T08:04:39;7.30;99.90
52867;DHT22;38739;53.324;6.862;2024-01-30T08:07:04;7.30;99.90
52867;DHT22;38739;53.324;6.862;2024-01-30T08:09:30;7.30;99.90
52867;DHT22;38739;53.324;6.862;2024-01-30T08:11:56;7.30;99.90
52867;DHT22;38739;53.324;6.862;2024-01-30T08:14:22;7.30;99.90
52867;DHT22;38739;53.324;6.862;2024-01-30T08:16:47;7.30;99.90
52867;DHT22;38739;53.324;6.862;2024-01-30T08:19:15;7.40;99.90
52867;DHT22;38739;53.324;6.862;2024-01-30T08:21:40;7.40;99.90
52867;DHT22;38739;53.324;6.862;2024-01-30T08:24:07;7.40;99.90
52867;DHT22;38739;53.324;6.862;2024-01-30T08:26:33;7.40;99.90
52867;DHT22;38739;53.324;6.862;2024-01-30T08:28:59;7.40;99.90
52867;DHT22;38739;53.324;6.862;2024-01-30T08:31:25;7.50;99.90
52867;DHT22;38739;53.324;6.862;2024-01-30T08:33:50;7.50;99.90
52867;DHT22;38739;53.324;6.862;2024-01-30T08:36:17;7.50;99.90
52867;DHT22;38739;53.324;6.862;2024-01-30T08:38:43;7.50;99.90
52867;DHT22;38739;53.324;6.862;2024-01-30T08:41:08;7.50;99.90
52867;DHT22;38739;53.324;6.862;2024-01-30T08:43:34;7.50;99.90
52867;DHT22;38739;53.324;6.862;2024-01-30T08:46:00;7.60;99.90
52867;DHT22;38739;53.324;6.862;2024-01-30T08:48:26;7.50;99.90
52867;DHT22;38739;53.324;6.862;2024-01-30T08:50:52;7.60;99.90
52867;DHT22;38739;53.324;6.862;2024-01-30T08:53:18;7.60;99.90
52867;DHT22;38739;53.324;6.862;2024-01-30T08:55:44;7.70;99.90
52867;DHT22;38739;53.324;6.862;2024-01-30T08:58:10;7.70;99.90
52867;DHT22;38739;53.324;6.862;2024-01-30T09:00:36;7.70;99.90
52867;DHT22;38739;53.324;6.862;2024-01-30T09:03:02;7.80;99.90
52867;DHT22;38739;53.324;6.862;2024-01-30T09:05:31;7.80;99.90
52867;DHT22;38739;53.324;6.862;2024-01-30T09:07:56;7.90;99.90
52867;DHT22;38739;53.324;6.862;2024-01-30T09:10:22;7.90;99.90
52867;DHT22;38739;53.324;6.862;2024-01-30T09:12:48;8.00;99.90
52867;DHT22;38739;53.324;6.862;2024-01-30T09:15:15;8.00;99.90
52867;DHT22;38739;53.324;6.862;2024-01-30T09:17:40;8.00;99.90
52867;DHT22;38739;53.324;6.862;2024-01-30T09:20:07;8.10;99.90
52867;DHT22;38739;53.324;6.862;2024-01-30T09:22:32;8.10;99.90
52867;DHT22;38739;53.324;6.862;2024-01-30T09:24:58;8.20;99.90
52867;DHT22;38739;53.324;6.862;2024-01-30T09:27:24;8.20;99.90
52867;DHT22;38739;53.324;6.862;2024-01-30T09:29:49;8.30;99.90
52867;DHT22;38739;53.324;6.862;2024-01-30T09:32:15;8.30;99.90
52867;DHT22;38739;53.324;6.862;2024-01-30T09:34:43;8.40;99.90
52867;DHT22;38739;53.324;6.862;2024-01-30T09:37:08;8.40;99.90
52867;DHT22;38739;53.324;6.862;2024-01-30T09:39:34;8.40;99.90
52867;DHT22;38739;53.324;6.862;2024-01-30T09:42:34;8.50;99.90
52867;DHT22;38739;53.324;6.862;2024-01-30T09:45:02;8.50;99.90
52867;DHT22;38739;53.324;6.862;2024-01-30T09:47:32;8.50;99.90
52867;DHT22;38739;53.324;6.862;2024-01-30T09:49:58;8.60;99.90
52867;DHT22;38739;53.324;6.862;2024-01-30T09:52:25;8.60;99.90
52867;DHT22;38739;53.324;6.862;2024-01-30T09:54:51;8.70;99.90
52867;DHT22;38739;53.324;6.862;2024-01-30T09:57:18;8.80;99.90
52867;DHT22;38739;53.324;6.862;2024-01-30T09:59:44;8.80;99.90
52867;DHT22;38739;53.324;6.862;2024-01-30T10:02:10;8.90;99.90
52867;DHT22;38739;53.324;6.862;2024-01-30T10:04:35;9.00;99.90
52867;DHT22;38739;53.324;6.862;2024-01-30T10:07:04;9.10;99.90
52867;DHT22;38739;53.324;6.862;2024-01-30T10:09:32;9.20;99.90
52867;DHT22;38739;53.324;6.862;2024-01-30T10:11:59;9.20;99.90
52867;DHT22;38739;53.324;6.862;2024-01-30T10:14:24;9.20;99.90
52867;DHT22;38739;53.324;6.862;2024-01-30T10:16:50;9.30;99.90
52867;DHT22;38739;53.324;6.862;2024-01-30T10:19:16;9.30;99.90
52867;DHT22;38739;53.324;6.862;2024-01-30T10:21:42;9.30;99.90
52867;DHT22;38739;53.324;6.862;2024-01-30T10:24:08;9.40;99.90
52867;DHT22;38739;53.324;6.862;2024-01-30T10:26:33;9.40;99.90
52867;DHT22;38739;53.324;6.862;2024-01-30T10:28:59;9.50;99.90
52867;DHT22;38739;53.324;6.862;2024-01-30T10:31:25;9.50;99.90
52867;DHT22;38739;53.324;6.862;2024-01-30T10:33:51;9.50;99.90
52867;DHT22;38739;53.324;6.862;2024-01-30T10:36:17;9.60;99.90
52867;DHT22;38739;53.324;6.862;2024-01-30T10:38:44;9.60;99.90
52867;DHT22;38739;53.324;6.862;2024-01-30T10:41:12;9.70;99.90
52867;DHT22;38739;53.324;6.862;2024-01-30T10:43:41;9.70;99.90
52867;DHT22;38739;53.324;6.862;2024-01-30T10:48:42;9.70;99.90
52867;DHT22;38739;53.324;6.862;2024-01-30T10:51:11;9.70;99.90
52867;DHT22;38739;53.324;6.862;2024-01-30T10:53:38;9.70;99.90
52867;DHT22;38739;53.324;6.862;2024-01-30T10:56:05;9.70;99.90
52867;DHT22;38739;53.324;6.862;2024-01-30T10:58:31;9.70;99.90
52867;DHT22;38739;53.324;6.862;2024-01-30T11:00:57;9.70;99.90
52867;DHT22;38739;53.324;6.862;2024-01-30T11:03:23;9.70;99.90
52867;DHT22;38739;53.324;6.862;2024-01-30T11:05:52;9.70;99.90
52867;DHT22;38739;53.324;6.862;2024-01-30T11:08:24;9.70;99.90
52867;DHT22;38739;53.324;6.862;2024-01-30T11:10:56;9.70;99.90
52867;DHT22;38739;53.324;6.862;2024-01-30T11:13:29;9.70;99.90
52867;DHT22;38739;53.324;6.862;2024-01-30T11:15:55;9.70;99.90
52867;DHT22;38739;53.324;6.862;2024-01-30T11:18:25;9.80;99.90
52867;DHT22;38739;53.324;6.862;2024-01-30T11:20:51;9.80;99.90
52867;DHT22;38739;53.324;6.862;2024-01-30T11:23:16;9.80;99.90
52867;DHT22;38739;53.324;6.862;2024-01-30T11:25:43;9.80;99.90
52867;DHT22;38739;53.324;6.862;2024-01-30T11:28:15;9.90;99.90
52867;DHT22;38739;53.324;6.862;2024-01-30T11:30:42;9.90;99.90
52867;DHT22;38739;53.324;6.862;2024-01-30T11:35:39;9.90;99.90
52867;DHT22;38739;53.324;6.862;2024-01-30T11:38:06;9.90;99.90
52867;DHT22;38739;53.324;6.862;2024-01-30T11:40:33;9.90;99.90
52867;DHT22;38739;53.324;6.862;2024-01-30T11:43:00;9.90;99.90
52867;DHT22;38739;53.324;6.862;2024-01-30T11:45:27;9.90;99.90
52867;DHT22;38739;53.324;6.862;2024-01-30T11:47:53;9.90;99.90
52867;DHT22;38739;53.324;6.862;2024-01-30T11:50:20;10.00;99.90
52867;DHT22;38739;53.324;6.862;2024-01-30T11:52:46;10.00;99.90
52867;DHT22;38739;53.324;6.862;2024-01-30T11:55:13;10.00;99.90
52867;DHT22;38739;53.324;6.862;2024-01-30T11:57:39;10.00;99.90
52867;DHT22;38739;53.324;6.862;2024-01-30T12:00:05;10.10;99.90
52867;DHT22;38739;53.324;6.862;2024-01-30T12:02:39;10.10;99.90
52867;DHT22;38739;53.324;6.862;2024-01-30T12:05:06;10.00;99.90
52867;DHT22;38739;53.324;6.862;2024-01-30T12:07:32;10.00;99.90
52867;DHT22;38739;53.324;6.862;2024-01-30T12:09:58;10.00;99.90
52867;DHT22;38739;53.324;6.862;2024-01-30T12:12:28;10.00;99.90
52867;DHT22;38739;53.324;6.862;2024-01-30T12:14:55;9.90;99.90
52867;DHT22;38739;53.324;6.862;2024-01-30T12:17:29;10.00;99.90
52867;DHT22;38739;53.324;6.862;2024-01-30T12:20:12;9.90;99.90
52867;DHT22;38739;53.324;6.862;2024-01-30T12:22:39;10.00;99.90
52867;DHT22;38739;53.324;6.862;2024-01-30T12:25:08;10.00;99.90
52867;DHT22;38739;53.324;6.862;2024-01-30T12:27:34;10.00;99.90
52867;DHT22;38739;53.324;6.862;2024-01-30T12:30:00;10.00;99.90
52867;DHT22;38739;53.324;6.862;2024-01-30T12:32:26;10.00;99.90
52867;DHT22;38739;53.324;6.862;2024-01-30T12:34:56;10.00;99.90
52867;DHT22;38739;53.324;6.862;2024-01-30T12:37:24;9.90;99.90
52867;DHT22;38739;53.324;6.862;2024-01-30T12:39:51;9.90;99.90
52867;DHT22;38739;53.324;6.862;2024-01-30T12:42:19;9.90;99.90
52867;DHT22;38739;53.324;6.862;2024-01-30T12:44:47;9.90;99.90
52867;DHT22;38739;53.324;6.862;2024-01-30T12:47:13;10.00;99.90
52867;DHT22;38739;53.324;6.862;2024-01-30T12:49:44;9.90;99.90
52867;DHT22;38739;53.324;6.862;2024-01-30T12:52:16;9.90;99.90
52867;DHT22;38739;53.324;6.862;2024-01-30T12:54:42;10.00;99.90
52867;DHT22;38739;53.324;6.862;2024-01-30T12:57:08;10.00;99.90
52867;DHT22;38739;53.324;6.862;2024-01-30T12:59:34;10.00;99.90
52867;DHT22;38739;53.324;6.862;2024-01-30T13:02:01;10.00;99.90
52867;DHT22;38739;53.324;6.862;2024-01-30T13:04:27;10.00;99.90
52867;DHT22;38739;53.324;6.862;2024-01-30T13:06:53;10.00;99.90
52867;DHT22;38739;53.324;6.862;2024-01-30T13:09:19;9.90;99.90
52867;DHT22;38739;53.324;6.862;2024-01-30T13:11:45;9.90;99.90
52867;DHT22;38739;53.324;6.862;2024-01-30T13:14:11;9.90;99.90
52867;DHT22;38739;53.324;6.862;2024-01-30T13:16:37;9.80;99.90
52867;DHT22;38739;53.324;6.862;2024-01-30T13:19:03;9.80;99.90
52867;DHT22;38739;53.324;6.862;2024-01-30T13:21:29;9.80;99.90
52867;DHT22;38739;53.324;6.862;2024-01-30T13:23:55;9.80;99.90
52867;DHT22;38739;53.324;6.862;2024-01-30T13:26:21;9.70;99.90
52867;DHT22;38739;53.324;6.862;2024-01-30T13:28:47;9.80;99.90
52867;DHT22;38739;53.324;6.862;2024-01-30T13:31:14;9.80;99.90
52867;DHT22;38739;53.324;6.862;2024-01-30T13:33:40;9.90;99.90
52867;DHT22;38739;53.324;6.862;2024-01-30T13:36:07;10.00;99.90
52867;DHT22;38739;53.324;6.862;2024-01-30T13:38:33;10.00;99.90
52867;DHT22;38739;53.324;6.862;2024-01-30T13:40:59;10.00;99.90
52867;DHT22;38739;53.324;6.862;2024-01-30T13:43:25;9.90;99.90
52867;DHT22;38739;53.324;6.862;2024-01-30T13:45:50;9.90;99.90
52867;DHT22;38739;53.324;6.862;2024-01-30T13:48:16;9.80;99.90
52867;DHT22;38739;53.324;6.862;2024-01-30T13:50:42;9.80;99.90
52867;DHT22;38739;53.324;6.862;2024-01-30T13:53:08;9.70;99.90
52867;DHT22;38739;53.324;6.862;2024-01-30T13:55:34;9.70;99.90
52867;DHT22;38739;53.324;6.862;2024-01-30T13:58:00;9.70;99.90
52867;DHT22;38739;53.324;6.862;2024-01-30T14:00:27;9.60;99.90
52867;DHT22;38739;53.324;6.862;2024-01-30T14:02:53;9.70;99.90
52867;DHT22;38739;53.324;6.862;2024-01-30T14:05:23;9.60;99.90
52867;DHT22;38739;53.324;6.862;2024-01-30T14:07:49;9.60;99.90
52867;DHT22;38739;53.324;6.862;2024-01-30T14:10:15;9.50;99.90
52867;DHT22;38739;53.324;6.862;2024-01-30T14:12:42;9.60;99.90
52867;DHT22;38739;53.324;6.862;2024-01-30T14:15:13;9.50;99.90
52867;DHT22;38739;53.324;6.862;2024-01-30T14:17:40;9.50;99.90
52867;DHT22;38739;53.324;6.862;2024-01-30T14:20:07;9.50;99.90
52867;DHT22;38739;53.324;6.862;2024-01-30T14:22:34;9.50;99.90
52867;DHT22;38739;53.324;6.862;2024-01-30T14:25:00;9.50;99.90
52867;DHT22;38739;53.324;6.862;2024-01-30T14:27:28;9.50;99.90
52867;DHT22;38739;53.324;6.862;2024-01-30T14:29:54;9.40;99.90
52867;DHT22;38739;53.324;6.862;2024-01-30T14:32:20;9.40;99.90
52867;DHT22;38739;53.324;6.862;2024-01-30T14:34:45;9.40;99.90
52867;DHT22;38739;53.324;6.862;2024-01-30T14:37:11;9.40;99.90
52867;DHT22;38739;53.324;6.862;2024-01-30T14:39:37;9.40;99.90
52867;DHT22;38739;53.324;6.862;2024-01-30T14:42:03;9.40;99.90
52867;DHT22;38739;53.324;6.862;2024-01-30T14:44:29;9.40;99.90
52867;DHT22;38739;53.324;6.862;2024-01-30T14:46:56;9.30;99.90
52867;DHT22;38739;53.324;6.862;2024-01-30T14:49:22;9.30;99.90
52867;DHT22;38739;53.324;6.862;2024-01-30T14:51:47;9.30;99.90
52867;DHT22;38739;53.324;6.862;2024-01-30T14:54:13;9.30;99.90
52867;DHT22;38739;53.324;6.862;2024-01-30T14:56:39;9.20;99.90
52867;DHT22;38739;53.324;6.862;2024-01-30T14:59:06;9.20;99.90
52867;DHT22;38739;53.324;6.862;2024-01-30T15:01:31;9.20;99.90
52867;DHT22;38739;53.324;6.862;2024-01-30T15:03:57;9.20;99.90
52867;DHT22;38739;53.324;6.862;2024-01-30T15:06:23;9.10;99.90
52867;DHT22;38739;53.324;6.862;2024-01-30T15:08:51;9.00;99.90
52867;DHT22;38739;53.324;6.862;2024-01-30T15:11:16;8.90;99.90
52867;DHT22;38739;53.324;6.862;2024-01-30T15:13:42;8.90;99.90
52867;DHT22;38739;53.324;6.862;2024-01-30T15:16:08;8.80;99.90
52867;DHT22;38739;53.324;6.862;2024-01-30T15:18:34;8.80;99.90
52867;DHT22;38739;53.324;6.862;2024-01-30T15:20:59;8.80;99.90
52867;DHT22;38739;53.324;6.862;2024-01-30T15:23:25;8.70;99.90
52867;DHT22;38739;53.324;6.862;2024-01-30T15:25:51;8.70;99.90
52867;DHT22;38739;53.324;6.862;2024-01-30T15:28:16;8.70;99.90
52867;DHT22;38739;53.324;6.862;2024-01-30T15:30:42;8.70;99.90
52867;DHT22;38739;53.324;6.862;2024-01-30T15:33:09;8.60;99.90
52867;DHT22;38739;53.324;6.862;2024-01-30T15:35:35;8.60;99.90
52867;DHT22;38739;53.324;6.862;2024-01-30T15:38:01;8.60;99.90
52867;DHT22;38739;53.324;6.862;2024-01-30T15:40:26;8.60;99.90
52867;DHT22;38739;53.324;6.862;2024-01-30T15:42:52;8.60;99.90
52867;DHT22;38739;53.324;6.862;2024-01-30T15:45:18;8.60;99.90